sensor_id;sensor_type;location;lat;lon;timestamp;P1;durP1;ratioP1;P2;durP2;ratioP2
4198;SDS011;2113;50.946;14.610;2024-02-14T00:01:15;12.48;;;6.72;;
4198;SDS011;2113;50.946;14.610;2024-02-14T00:03:43;10.18;;;5.70;;
4198;SDS011;2113;50.946;14.610;2024-02-14T00:06:12;16.15;;;6.18;;
4198;SDS011;2113;50.946;14.610;2024-02-14T00:08:42;10.95;;;5.07;;
4198;SDS011;2113;50.946;14.610;2024-02-14T00:11:12;14.82;;;6.20;;
4198;SDS011;2113;50.946;14.610;2024-02-14T00:13:41;7.40;;;4.45;;
4198;SDS011;2113;50.946;14.610;2024-02-14T00:16:09;10.60;;;5.22;;
4198;SDS011;2113;50.946;14.610;2024-02-14T00:18:39;5.80;;;3.75;;
4198;SDS011;2113;50.946;14.610;2024-02-14T00:21:08;7.30;;;4.20;;
4198;SDS011;2113;50.946;14.610;2024-02-14T00:23:37;11.15;;;4.75;;
4198;SDS011;2113;50.946;14.610;2024-02-14T00:26:07;5.22;;;3.58;;
4198;SDS011;2113;50.946;14.610;2024-02-14T00:28:35;11.00;;;4.45;;
4198;SDS011;2113;50.946;14.610;2024-02-14T00:31:04;8.18;;;3.70;;
4198;SDS011;2113;50.946;14.610;2024-02-14T00:33:56;9.77;;;4.07;;
4198;SDS011;2113;50.946;14.610;2024-02-14T00:36:24;10.98;;;4.65;;
4198;SDS011;2113;50.946;14.610;2024-02-14T00:38:55;13.93;;;7.55;;
4198;SDS011;2113;50.946;14.610;2024-02-14T00:41:25;12.38;;;5.90;;
4198;SDS011;2113;50.946;14.610;2024-02-14T00:43:56;12.32;;;5.30;;
4198;SDS011;2113;50.946;14.610;2024-02-14T00:46:25;13.77;;;5.15;;
4198;SDS011;2113;50.946;14.610;2024-02-14T00:48:54;9.82;;;5.40;;
4198;SDS011;2113;50.946;14.610;2024-02-14T00:51:23;9.68;;;5.15;;
4198;SDS011;2113;50.946;14.610;2024-02-14T00:53:52;10.70;;;5.32;;
4198;SDS011;2113;50.946;14.610;2024-02-14T00:56:22;11.38;;;6.28;;
4198;SDS011;2113;50.946;14.610;2024-02-14T00:58:52;11.98;;;5.45;;
4198;SDS011;2113;50.946;14.610;2024-02-14T01:01:20;9.88;;;4.85;;
4198;SDS011;2113;50.946;14.610;2024-02-14T01:03:50;10.18;;;5.10;;
4198;SDS011;2113;50.946;14.610;2024-02-14T01:06:18;9.80;;;5.32;;
4198;SDS011;2113;50.946;14.610;2024-02-14T01:08:47;12.73;;;4.97;;
4198;SDS011;2113;50.946;14.610;2024-02-14T01:11:15;10.20;;;5.28;;
4198;SDS011;2113;50.946;14.610;2024-02-14T01:13:45;8.55;;;5.18;;
4198;SDS011;2113;50.946;14.610;2024-02-14T06:38:23;14.45;;;7.95;;
4198;SDS011;2113;50.946;14.610;2024-02-14T06:40:52;13.35;;;7.63;;
4198;SDS011;2113;50.946;14.610;2024-02-14T06:43:20;13.60;;;6.38;;
4198;SDS011;2113;50.946;14.610;2024-02-14T06:45:50;15.95;;;7.97;;
4198;SDS011;2113;50.946;14.610;2024-02-14T06:48:23;15.13;;;7.95;;
4198;SDS011;2113;50.946;14.610;2024-02-14T06:50:52;14.30;;;7.63;;
4198;SDS011;2113;50.946;14.610;2024-02-14T06:53:22;13.07;;;8.80;;
4198;SDS011;2113;50.946;14.610;2024-02-14T06:55:50;23.42;;;9.82;;
4198;SDS011;2113;50.946;14.610;2024-02-14T06:58:21;14.05;;;7.80;;
4198;SDS011;2113;50.946;14.610;2024-02-14T07:00:49;15.45;;;9.27;;
4198;SDS011;2113;50.946;14.610;2024-02-14T07:03:18;16.10;;;7.80;;
4198;SDS011;2113;50.946;14.610;2024-02-14T07:05:47;14.32;;;8.65;;
4198;SDS011;2113;50.946;14.610;2024-02-14T07:08:15;12.10;;;8.10;;
4198;SDS011;2113;50.946;14.610;2024-02-14T07:10:45;16.75;;;9.65;;
4198;SDS011;2113;50.946;14.610;2024-02-14T07:13:14;20.77;;;9.68;;
4198;SDS011;2113;50.946;14.610;2024-02-14T07:15:42;18.70;;;9.05;;
4198;SDS011;2113;50.946;14.610;2024-02-14T07:18:12;16.35;;;8.73;;
4198;SDS011;2113;50.946;14.610;2024-02-14T07:20:40;19.90;;;10.32;;
4198;SDS011;2113;50.946;14.610;2024-02-14T07:23:09;20.98;;;9.18;;
4198;SDS011;2113;50.946;14.610;2024-02-14T07:25:37;16.58;;;8.52;;
4198;SDS011;2113;50.946;14.610;2024-02-14T07:28:07;18.40;;;10.02;;
4198;SDS011;2113;50.946;14.610;2024-02-14T07:30:36;15.43;;;9.45;;
4198;SDS011;2113;50.946;14.610;2024-02-14T07:33:04;16.38;;;9.77;;
4198;SDS011;2113;50.946;14.610;2024-02-14T07:35:34;18.23;;;10.13;;
4198;SDS011;2113;50.946;14.610;2024-02-14T07:38:04;19.27;;;10.93;;
4198;SDS011;2113;50.946;14.610;2024-02-14T07:40:33;16.98;;;8.27;;
4198;SDS011;2113;50.946;14.610;2024-02-14T07:43:15;15.65;;;8.10;;
4198;SDS011;2113;50.946;14.610;2024-02-14T07:45:43;16.52;;;9.80;;
4198;SDS011;2113;50.946;14.610;2024-02-14T07:48:11;17.00;;;10.00;;
4198;SDS011;2113;50.946;14.610;2024-02-14T07:50:41;18.10;;;8.70;;
4198;SDS011;2113;50.946;14.610;2024-02-14T07:53:11;12.40;;;8.32;;
4198;SDS011;2113;50.946;14.610;2024-02-14T07:55:39;15.55;;;9.98;;
4198;SDS011;2113;50.946;14.610;2024-02-14T07:58:08;16.05;;;9.30;;
4198;SDS011;2113;50.946;14.610;2024-02-14T08:00:38;17.13;;;9.90;;
4198;SDS011;2113;50.946;14.610;2024-02-14T08:03:06;15.65;;;9.10;;
4198;SDS011;2113;50.946;14.610;2024-02-14T08:05:35;15.98;;;9.52;;
4198;SDS011;2113;50.946;14.610;2024-02-14T08:08:04;18.27;;;8.52;;
4198;SDS011;2113;50.946;14.610;2024-02-14T08:10:33;16.50;;;8.82;;
4198;SDS011;2113;50.946;14.610;2024-02-14T08:13:01;11.98;;;7.82;;
4198;SDS011;2113;50.946;14.610;2024-02-14T08:15:31;16.40;;;7.50;;
4198;SDS011;2113;50.946;14.610;2024-02-14T08:18:05;17.30;;;10.05;;
4198;SDS011;2113;50.946;14.610;2024-02-14T08:20:36;17.50;;;10.50;;
4198;SDS011;2113;50.946;14.610;2024-02-14T08:23:11;20.27;;;11.75;;
4198;SDS011;2113;50.946;14.610;2024-02-14T08:25:40;20.40;;;11.05;;
4198;SDS011;2113;50.946;14.610;2024-02-14T08:28:09;17.17;;;9.73;;
4198;SDS011;2113;50.946;14.610;2024-02-14T08:30:37;19.35;;;10.25;;
4198;SDS011;2113;50.946;14.610;2024-02-14T08:33:08;20.05;;;10.60;;
4198;SDS011;2113;50.946;14.610;2024-02-14T08:35:38;18.80;;;11.18;;
4198;SDS011;2113;50.946;14.610;2024-02-14T08:38:13;23.33;;;12.35;;
4198;SDS011;2113;50.946;14.610;2024-02-14T08:40:41;20.20;;;10.82;;
4198;SDS011;2113;50.946;14.610;2024-02-14T08:43:11;15.15;;;10.38;;
4198;SDS011;2113;50.946;14.610;2024-02-14T08:45:41;17.13;;;10.32;;
4198;SDS011;2113;50.946;14.610;2024-02-14T08:48:10;18.20;;;10.43;;
4198;SDS011;2113;50.946;14.610;2024-02-14T08:50:39;16.33;;;9.50;;
4198;SDS011;2113;50.946;14.610;2024-02-14T08:53:08;16.52;;;9.27;;
4198;SDS011;2113;50.946;14.610;2024-02-14T08:55:36;19.60;;;10.43;;
4198;SDS011;2113;50.946;14.610;2024-02-14T08:58:08;16.92;;;10.88;;
4198;SDS011;2113;50.946;14.610;2024-02-14T09:00:37;14.68;;;9.18;;
4198;SDS011;2113;50.946;14.610;2024-02-14T09:03:07;14.65;;;9.52;;
4198;SDS011;2113;50.946;14.610;2024-02-14T09:05:37;18.65;;;9.43;;
4198;SDS011;2113;50.946;14.610;2024-02-14T09:08:06;24.67;;;9.30;;
4198;SDS011;2113;50.946;14.610;2024-02-14T09:10:34;22.00;;;10.70;;
4198;SDS011;2113;50.946;14.610;2024-02-14T09:13:03;19.48;;;11.38;;
4198;SDS011;2113;50.946;14.610;2024-02-14T09:15:33;13.23;;;8.93;;
4198;SDS011;2113;50.946;14.610;2024-02-14T09:18:02;18.05;;;9.35;;
4198;SDS011;2113;50.946;14.610;2024-02-14T09:20:31;25.52;;;10.50;;
4198;SDS011;2113;50.946;14.610;2024-02-14T09:23:01;16.50;;;9.43;;
4198;SDS011;2113;50.946;14.610;2024-02-14T09:25:30;18.80;;;9.43;;
4198;SDS011;2113;50.946;14.610;2024-02-14T09:27:58;16.13;;;9.50;;
4198;SDS011;2113;50.946;14.610;2024-02-14T09:30:28;20.38;;;11.57;;
4198;SDS011;2113;50.946;14.610;2024-02-14T09:33:04;17.02;;;9.35;;
4198;SDS011;2113;50.946;14.610;2024-02-14T09:35:33;14.95;;;9.38;;
4198;SDS011;2113;50.946;14.610;2024-02-14T09:38:05;14.95;;;10.35;;
4198;SDS011;2113;50.946;14.610;2024-02-14T09:40:34;18.77;;;9.68;;
4198;SDS011;2113;50.946;14.610;2024-02-14T09:43:03;11.52;;;6.75;;
4198;SDS011;2113;50.946;14.610;2024-02-14T09:45:38;21.70;;;10.18;;
4198;SDS011;2113;50.946;14.610;2024-02-14T09:48:10;17.08;;;9.68;;
4198;SDS011;2113;50.946;14.610;2024-02-14T09:50:41;16.70;;;9.18;;
4198;SDS011;2113;50.946;14.610;2024-02-14T09:53:14;17.42;;;9.35;;
4198;SDS011;2113;50.946;14.610;2024-02-14T09:55:42;16.25;;;9.07;;
4198;SDS011;2113;50.946;14.610;2024-02-14T09:58:14;14.68;;;7.43;;
4198;SDS011;2113;50.946;14.610;2024-02-14T10:00:43;14.70;;;8.35;;
4198;SDS011;2113;50.946;14.610;2024-02-14T10:03:13;14.57;;;9.15;;
4198;SDS011;2113;50.946;14.610;2024-02-14T10:05:42;17.25;;;10.55;;
4198;SDS011;2113;50.946;14.610;2024-02-14T10:08:14;15.65;;;9.05;;
4198;SDS011;2113;50.946;14.610;2024-02-14T10:10:43;15.63;;;9.23;;
4198;SDS011;2113;50.946;14.610;2024-02-14T10:13:17;14.68;;;7.90;;
4198;SDS011;2113;50.946;14.610;2024-02-14T10:15:46;14.82;;;8.75;;
4198;SDS011;2113;50.946;14.610;2024-02-14T10:18:14;12.55;;;7.28;;
4198;SDS011;2113;50.946;14.610;2024-02-14T10:20:52;10.32;;;6.55;;
4198;SDS011;2113;50.946;14.610;2024-02-14T10:23:23;13.75;;;7.85;;
4198;SDS011;2113;50.946;14.610;2024-02-14T10:25:52;14.43;;;6.05;;
4198;SDS011;2113;50.946;14.610;2024-02-14T10:28:24;13.77;;;5.60;;
4198;SDS011;2113;50.946;14.610;2024-02-14T10:31:05;13.60;;;7.97;;
4198;SDS011;2113;50.946;14.610;2024-02-14T10:33:36;14.70;;;7.70;;
4198;SDS011;2113;50.946;14.610;2024-02-14T10:36:05;10.93;;;6.20;;
4198;SDS011;2113;50.946;14.610;2024-02-14T10:38:37;12.00;;;5.20;;
4198;SDS011;2113;50.946;14.610;2024-02-14T10:41:06;13.48;;;6.15;;
4198;SDS011;2113;50.946;14.610;2024-02-14T10:43:37;10.85;;;5.75;;
4198;SDS011;2113;50.946;14.610;2024-02-14T10:46:10;8.85;;;4.70;;
4198;SDS011;2113;50.946;14.610;2024-02-14T10:48:43;8.68;;;4.78;;
4198;SDS011;2113;50.946;14.610;2024-02-14T10:51:15;9.43;;;5.35;;
4198;SDS011;2113;50.946;14.610;2024-02-14T10:53:49;9.88;;;5.15;;
4198;SDS011;2113;50.946;14.610;2024-02-14T10:56:22;13.63;;;5.88;;
4198;SDS011;2113;50.946;14.610;2024-02-14T10:58:56;10.82;;;5.78;;
4198;SDS011;2113;50.946;14.610;2024-02-14T11:01:26;13.30;;;7.70;;
4198;SDS011;2113;50.946;14.610;2024-02-14T11:03:58;15.88;;;7.30;;
4198;SDS011;2113;50.946;14.610;2024-02-14T11:06:28;12.63;;;6.60;;
4198;SDS011;2113;50.946;14.610;2024-02-14T11:09:00;12.25;;;5.88;;
4198;SDS011;2113;50.946;14.610;2024-02-14T11:11:34;10.38;;;5.70;;
4198;SDS011;2113;50.946;14.610;2024-02-14T11:14:02;9.93;;;5.40;;
4198;SDS011;2113;50.946;14.610;2024-02-14T11:16:31;11.55;;;6.25;;
4198;SDS011;2113;50.946;14.610;2024-02-14T11:19:06;9.65;;;6.10;;
4198;SDS011;2113;50.946;14.610;2024-02-14T11:21:36;8.93;;;5.70;;
4198;SDS011;2113;50.946;14.610;2024-02-14T11:24:11;13.60;;;7.45;;
4198;SDS011;2113;50.946;14.610;2024-02-14T11:26:48;14.85;;;6.78;;
4198;SDS011;2113;50.946;14.610;2024-02-14T11:29:19;11.13;;;6.63;;
4198;SDS011;2113;50.946;14.610;2024-02-14T11:31:57;13.20;;;6.97;;
4198;SDS011;2113;50.946;14.610;2024-02-14T11:34:26;11.85;;;6.00;;
4198;SDS011;2113;50.946;14.610;2024-02-14T11:36:56;11.30;;;6.63;;
4198;SDS011;2113;50.946;14.610;2024-02-14T11:39:28;14.57;;;7.40;;
4198;SDS011;2113;50.946;14.610;2024-02-14T11:41:57;14.45;;;8.00;;
4198;SDS011;2113;50.946;14.610;2024-02-14T11:44:27;15.23;;;7.55;;
4198;SDS011;2113;50.946;14.610;2024-02-14T11:46:55;13.90;;;7.78;;
4198;SDS011;2113;50.946;14.610;2024-02-14T11:49:25;14.27;;;6.90;;
4198;SDS011;2113;50.946;14.610;2024-02-14T11:51:53;9.57;;;6.05;;
4198;SDS011;2113;50.946;14.610;2024-02-14T11:54:24;10.38;;;6.60;;
4198;SDS011;2113;50.946;14.610;2024-02-14T11:57:19;13.27;;;7.05;;
4198;SDS011;2113;50.946;14.610;2024-02-14T11:59:49;10.98;;;7.22;;
4198;SDS011;2113;50.946;14.610;2024-02-14T12:02:20;11.80;;;6.50;;
4198;SDS011;2113;50.946;14.610;2024-02-14T12:04:49;12.30;;;6.70;;
4198;SDS011;2113;50.946;14.610;2024-02-14T12:07:21;14.75;;;7.55;;
4198;SDS011;2113;50.946;14.610;2024-02-14T12:09:50;13.35;;;7.10;;
4198;SDS011;2113;50.946;14.610;2024-02-14T12:12:20;12.63;;;6.63;;
4198;SDS011;2113;50.946;14.610;2024-02-14T12:14:51;9.82;;;7.18;;
4198;SDS011;2113;50.946;14.610;2024-02-14T12:17:20;11.80;;;7.80;;
4198;SDS011;2113;50.946;14.610;2024-02-14T12:19:49;11.48;;;6.88;;
4198;SDS011;2113;50.946;14.610;2024-02-14T12:22:18;12.68;;;6.88;;
4198;SDS011;2113;50.946;14.610;2024-02-14T12:24:48;15.40;;;6.60;;
4198;SDS011;2113;50.946;14.610;2024-02-14T12:27:20;12.85;;;6.50;;
4198;SDS011;2113;50.946;14.610;2024-02-14T12:29:50;11.15;;;7.00;;
4198;SDS011;2113;50.946;14.610;2024-02-14T12:32:19;13.38;;;7.75;;
4198;SDS011;2113;50.946;14.610;2024-02-14T12:34:48;9.63;;;5.63;;
4198;SDS011;2113;50.946;14.610;2024-02-14T12:37:17;10.98;;;6.82;;
4198;SDS011;2113;50.946;14.610;2024-02-14T12:39:45;13.02;;;6.25;;
4198;SDS011;2113;50.946;14.610;2024-02-14T12:42:14;15.85;;;7.65;;
4198;SDS011;2113;50.946;14.610;2024-02-14T12:44:46;11.30;;;6.32;;
4198;SDS011;2113;50.946;14.610;2024-02-14T12:47:14;10.40;;;6.43;;
4198;SDS011;2113;50.946;14.610;2024-02-14T12:49:44;13.60;;;7.45;;
4198;SDS011;2113;50.946;14.610;2024-02-14T12:52:16;9.90;;;6.28;;
4198;SDS011;2113;50.946;14.610;2024-02-14T12:54:44;10.85;;;6.50;;
4198;SDS011;2113;50.946;14.610;2024-02-14T12:57:14;17.65;;;6.35;;
4198;SDS011;2113;50.946;14.610;2024-02-14T12:59:43;11.95;;;6.40;;
4198;SDS011;2113;50.946;14.610;2024-02-14T13:02:14;11.45;;;6.30;;
4198;SDS011;2113;50.946;14.610;2024-02-14T13:04:44;15.00;;;8.18;;
4198;SDS011;2113;50.946;14.610;2024-02-14T13:07:12;12.57;;;7.45;;
4198;SDS011;2113;50.946;14.610;2024-02-14T13:09:41;11.15;;;7.43;;
4198;SDS011;2113;50.946;14.610;2024-02-14T13:12:11;16.83;;;7.60;;
4198;SDS011;2113;50.946;14.610;2024-02-14T13:14:40;14.40;;;7.03;;
4198;SDS011;2113;50.946;14.610;2024-02-14T13:17:08;13.40;;;8.10;;
4198;SDS011;2113;50.946;14.610;2024-02-14T13:19:40;15.30;;;6.70;;
4198;SDS011;2113;50.946;14.610;2024-02-14T13:24:53;12.63;;;7.63;;
4198;SDS011;2113;50.946;14.610;2024-02-14T13:27:22;11.13;;;8.07;;
4198;SDS011;2113;50.946;14.610;2024-02-14T13:29:55;13.40;;;8.45;;
4198;SDS011;2113;50.946;14.610;2024-02-14T13:32:24;12.27;;;8.05;;
4198;SDS011;2113;50.946;14.610;2024-02-14T13:34:54;10.93;;;7.05;;
4198;SDS011;2113;50.946;14.610;2024-02-14T13:37:23;14.82;;;8.80;;
4198;SDS011;2113;50.946;14.610;2024-02-14T13:39:54;13.60;;;7.82;;
4198;SDS011;2113;50.946;14.610;2024-02-14T13:42:23;14.68;;;8.15;;
4198;SDS011;2113;50.946;14.610;2024-02-14T13:44:52;14.35;;;8.50;;
4198;SDS011;2113;50.946;14.610;2024-02-14T13:47:21;14.70;;;8.35;;
4198;SDS011;2113;50.946;14.610;2024-02-14T13:49:51;15.68;;;7.82;;
4198;SDS011;2113;50.946;14.610;2024-02-14T13:52:22;11.20;;;7.35;;
4198;SDS011;2113;50.946;14.610;2024-02-14T13:54:50;13.13;;;7.25;;
4198;SDS011;2113;50.946;14.610;2024-02-14T13:57:19;16.50;;;6.95;;
4198;SDS011;2113;50.946;14.610;2024-02-14T13:59:47;24.77;;;8.27;;
4198;SDS011;2113;50.946;14.610;2024-02-14T14:02:18;13.30;;;7.00;;
4198;SDS011;2113;50.946;14.610;2024-02-14T14:04:48;16.45;;;7.03;;
4198;SDS011;2113;50.946;14.610;2024-02-14T14:07:17;12.20;;;5.90;;
4198;SDS011;2113;50.946;14.610;2024-02-14T14:09:48;13.63;;;8.60;;
4198;SDS011;2113;50.946;14.610;2024-02-14T14:12:16;10.18;;;5.95;;
4198;SDS011;2113;50.946;14.610;2024-02-14T14:14:49;12.73;;;6.90;;
4198;SDS011;2113;50.946;14.610;2024-02-14T14:17:18;14.90;;;7.20;;
4198;SDS011;2113;50.946;14.610;2024-02-14T14:19:47;11.60;;;6.80;;
4198;SDS011;2113;50.946;14.610;2024-02-14T14:22:15;11.27;;;6.30;;
4198;SDS011;2113;50.946;14.610;2024-02-14T14:24:43;11.70;;;6.32;;
4198;SDS011;2113;50.946;14.610;2024-02-14T14:27:15;10.48;;;6.25;;
4198;SDS011;2113;50.946;14.610;2024-02-14T14:29:43;11.20;;;6.50;;
4198;SDS011;2113;50.946;14.610;2024-02-14T14:32:12;15.15;;;7.78;;
4198;SDS011;2113;50.946;14.610;2024-02-14T14:34:40;13.15;;;7.57;;
4198;SDS011;2113;50.946;14.610;2024-02-14T14:37:08;9.75;;;5.97;;
4198;SDS011;2113;50.946;14.610;2024-02-14T14:39:37;13.55;;;6.80;;
4198;SDS011;2113;50.946;14.610;2024-02-14T14:42:06;8.18;;;5.90;;
4198;SDS011;2113;50.946;14.610;2024-02-14T14:44:37;17.90;;;8.32;;
4198;SDS011;2113;50.946;14.610;2024-02-14T14:47:06;13.20;;;7.57;;
4198;SDS011;2113;50.946;14.610;2024-02-14T14:49:34;10.30;;;6.60;;
4198;SDS011;2113;50.946;14.610;2024-02-14T14:52:07;16.17;;;7.20;;
4198;SDS011;2113;50.946;14.610;2024-02-14T14:54:36;15.77;;;7.05;;
4198;SDS011;2113;50.946;14.610;2024-02-14T14:57:05;18.30;;;7.13;;
4198;SDS011;2113;50.946;14.610;2024-02-14T14:59:40;12.82;;;7.50;;
4198;SDS011;2113;50.946;14.610;2024-02-14T15:02:12;11.05;;;6.95;;
4198;SDS011;2113;50.946;14.610;2024-02-14T15:04:43;13.55;;;7.93;;
4198;SDS011;2113;50.946;14.610;2024-02-14T15:07:13;14.57;;;6.43;;
4198;SDS011;2113;50.946;14.610;2024-02-14T15:09:42;10.85;;;7.43;;
4198;SDS011;2113;50.946;14.610;2024-02-14T15:12:11;12.25;;;6.47;;
4198;SDS011;2113;50.946;14.610;2024-02-14T15:14:42;10.13;;;6.47;;
4198;SDS011;2113;50.946;14.610;2024-02-14T15:17:11;15.77;;;8.30;;
4198;SDS011;2113;50.946;14.610;2024-02-14T15:19:40;16.98;;;7.60;;
4198;SDS011;2113;50.946;14.610;2024-02-14T15:22:08;14.27;;;6.72;;
4198;SDS011;2113;50.946;14.610;2024-02-14T15:24:37;14.82;;;8.15;;
4198;SDS011;2113;50.946;14.610;2024-02-14T15:27:07;12.82;;;7.57;;
4198;SDS011;2113;50.946;14.610;2024-02-14T15:29:42;13.55;;;8.52;;
4198;SDS011;2113;50.946;14.610;2024-02-14T15:32:29;15.38;;;7.40;;
4198;SDS011;2113;50.946;14.610;2024-02-14T15:35:15;11.88;;;6.70;;
4198;SDS011;2113;50.946;14.610;2024-02-14T15:37:44;13.23;;;7.30;;
4198;SDS011;2113;50.946;14.610;2024-02-14T15:40:15;11.05;;;6.88;;
4198;SDS011;2113;50.946;14.610;2024-02-14T15:42:48;9.85;;;6.63;;
4198;SDS011;2113;50.946;14.610;2024-02-14T15:45:18;11.73;;;7.28;;
4198;SDS011;2113;50.946;14.610;2024-02-14T15:47:47;13.13;;;7.25;;
4198;SDS011;2113;50.946;14.610;2024-02-14T15:50:16;15.23;;;6.28;;
4198;SDS011;2113;50.946;14.610;2024-02-14T15:52:44;13.10;;;6.63;;
4198;SDS011;2113;50.946;14.610;2024-02-14T15:55:12;13.32;;;6.60;;
4198;SDS011;2113;50.946;14.610;2024-02-14T15:57:41;11.65;;;6.82;;
4198;SDS011;2113;50.946;14.610;2024-02-14T16:00:11;15.32;;;7.30;;
4198;SDS011;2113;50.946;14.610;2024-02-14T16:02:43;12.45;;;7.40;;
4198;SDS011;2113;50.946;14.610;2024-02-14T16:05:14;11.98;;;7.40;;
4198;SDS011;2113;50.946;14.610;2024-02-14T16:07:44;19.95;;;8.90;;
4198;SDS011;2113;50.946;14.610;2024-02-14T16:10:13;16.92;;;7.82;;
4198;SDS011;2113;50.946;14.610;2024-02-14T16:12:42;14.45;;;7.60;;
4198;SDS011;2113;50.946;14.610;2024-02-14T16:15:11;9.88;;;7.07;;
4198;SDS011;2113;50.946;14.610;2024-02-14T16:17:40;11.25;;;7.00;;
4198;SDS011;2113;50.946;14.610;2024-02-14T16:20:11;15.10;;;7.63;;
4198;SDS011;2113;50.946;14.610;2024-02-14T16:22:40;10.65;;;6.53;;
4198;SDS011;2113;50.946;14.610;2024-02-14T16:25:09;14.77;;;7.40;;
4198;SDS011;2113;50.946;14.610;2024-02-14T16:27:38;14.48;;;8.27;;
4198;SDS011;2113;50.946;14.610;2024-02-14T16:30:07;13.55;;;7.90;;
4198;SDS011;2113;50.946;14.610;2024-02-14T16:32:37;14.38;;;8.15;;
4198;SDS011;2113;50.946;14.610;2024-02-14T16:35:06;15.80;;;8.95;;
4198;SDS011;2113;50.946;14.610;2024-02-14T16:37:38;17.13;;;7.15;;
4198;SDS011;2113;50.946;14.610;2024-02-14T16:40:07;13.70;;;9.30;;
4198;SDS011;2113;50.946;14.610;2024-02-14T16:42:37;17.10;;;8.65;;
4198;SDS011;2113;50.946;14.610;2024-02-14T16:45:06;14.38;;;8.43;;
4198;SDS011;2113;50.946;14.610;2024-02-14T16:47:35;16.23;;;8.82;;
4198;SDS011;2113;50.946;14.610;2024-02-14T16:50:05;15.98;;;8.05;;
4198;SDS011;2113;50.946;14.610;2024-02-14T16:52:35;14.05;;;8.50;;
4198;SDS011;2113;50.946;14.610;2024-02-14T16:55:06;15.27;;;7.90;;
4198;SDS011;2113;50.946;14.610;2024-02-14T16:57:35;12.77;;;8.48;;
4198;SDS011;2113;50.946;14.610;2024-02-14T17:00:05;14.45;;;8.90;;
4198;SDS011;2113;50.946;14.610;2024-02-14T17:02:36;13.95;;;9.15;;
4198;SDS011;2113;50.946;14.610;2024-02-14T17:05:05;15.88;;;9.68;;
4198;SDS011;2113;50.946;14.610;2024-02-14T17:11:25;14.70;;;9.07;;
4198;SDS011;2113;50.946;14.610;2024-02-14T17:13:54;17.45;;;8.43;;
4198;SDS011;2113;50.946;14.610;2024-02-14T17:16:22;15.48;;;9.18;;
4198;SDS011;2113;50.946;14.610;2024-02-14T17:18:51;16.25;;;8.95;;
4198;SDS011;2113;50.946;14.610;2024-02-14T17:21:20;13.57;;;8.15;;
4198;SDS011;2113;50.946;14.610;2024-02-14T17:23:49;14.48;;;8.98;;
4198;SDS011;2113;50.946;14.610;2024-02-14T17:26:17;19.15;;;9.55;;
4198;SDS011;2113;50.946;14.610;2024-02-14T17:28:47;15.35;;;9.63;;
4198;SDS011;2113;50.946;14.610;2024-02-14T17:31:16;13.70;;;8.55;;
4198;SDS011;2113;50.946;14.610;2024-02-14T17:33:44;15.63;;;8.35;;
4198;SDS011;2113;50.946;14.610;2024-02-14T17:36:14;15.82;;;8.82;;
4198;SDS011;2113;50.946;14.610;2024-02-14T17:38:43;21.45;;;9.18;;
4198;SDS011;2113;50.946;14.610;2024-02-14T17:41:12;15.25;;;9.07;;
4198;SDS011;2113;50.946;14.610;2024-02-14T17:43:41;12.80;;;8.32;;
4198;SDS011;2113;50.946;14.610;2024-02-14T17:46:11;20.13;;;9.70;;
4198;SDS011;2113;50.946;14.610;2024-02-14T17:48:39;14.68;;;8.85;;
4198;SDS011;2113;50.946;14.610;2024-02-14T17:51:08;15.05;;;8.43;;
4198;SDS011;2113;50.946;14.610;2024-02-14T17:53:37;14.20;;;9.15;;
4198;SDS011;2113;50.946;14.610;2024-02-14T17:56:06;12.73;;;8.90;;
4198;SDS011;2113;50.946;14.610;2024-02-14T17:58:35;16.30;;;9.35;;
4198;SDS011;2113;50.946;14.610;2024-02-14T18:01:04;18.63;;;9.20;;
4198;SDS011;2113;50.946;14.610;2024-02-14T18:03:35;12.52;;;8.05;;
4198;SDS011;2113;50.946;14.610;2024-02-14T18:06:04;16.85;;;9.52;;
4198;SDS011;2113;50.946;14.610;2024-02-14T18:08:33;16.20;;;9.05;;
4198;SDS011;2113;50.946;14.610;2024-02-14T18:11:01;14.63;;;9.02;;
4198;SDS011;2113;50.946;14.610;2024-02-14T18:13:30;12.88;;;8.10;;
4198;SDS011;2113;50.946;14.610;2024-02-14T18:16:00;13.93;;;8.30;;
4198;SDS011;2113;50.946;14.610;2024-02-14T18:18:28;16.85;;;9.38;;
4198;SDS011;2113;50.946;14.610;2024-02-14T18:21:01;15.50;;;8.40;;
4198;SDS011;2113;50.946;14.610;2024-02-14T18:23:31;21.27;;;8.82;;
4198;SDS011;2113;50.946;14.610;2024-02-14T18:25:59;15.90;;;9.80;;
4198;SDS011;2113;50.946;14.610;2024-02-14T18:28:27;17.92;;;10.90;;
4198;SDS011;2113;50.946;14.610;2024-02-14T18:30:57;14.93;;;9.65;;
4198;SDS011;2113;50.946;14.610;2024-02-14T18:33:27;11.93;;;8.32;;
4198;SDS011;2113;50.946;14.610;2024-02-14T18:35:56;11.98;;;7.00;;
4198;SDS011;2113;50.946;14.610;2024-02-14T18:38:26;15.40;;;7.80;;
4198;SDS011;2113;50.946;14.610;2024-02-14T18:40:58;15.85;;;7.90;;
4198;SDS011;2113;50.946;14.610;2024-02-14T18:43:26;11.50;;;8.10;;
4198;SDS011;2113;50.946;14.610;2024-02-14T18:45:55;14.48;;;6.80;;
4198;SDS011;2113;50.946;14.610;2024-02-14T18:48:23;12.25;;;8.15;;
4198;SDS011;2113;50.946;14.610;2024-02-14T18:50:51;15.63;;;8.20;;
4198;SDS011;2113;50.946;14.610;2024-02-14T18:53:20;11.30;;;7.13;;
4198;SDS011;2113;50.946;14.610;2024-02-14T18:55:50;12.65;;;7.20;;
4198;SDS011;2113;50.946;14.610;2024-02-14T18:58:19;11.85;;;6.97;;
4198;SDS011;2113;50.946;14.610;2024-02-14T19:00:48;9.98;;;6.10;;
4198;SDS011;2113;50.946;14.610;2024-02-14T19:03:17;12.98;;;7.63;;
4198;SDS011;2113;50.946;14.610;2024-02-14T19:05:46;8.90;;;6.18;;
4198;SDS011;2113;50.946;14.610;2024-02-14T19:08:15;11.75;;;5.75;;
4198;SDS011;2113;50.946;14.610;2024-02-14T19:10:43;12.32;;;6.60;;
4198;SDS011;2113;50.946;14.610;2024-02-14T19:13:13;13.48;;;5.90;;
4198;SDS011;2113;50.946;14.610;2024-02-14T19:15:43;8.13;;;5.88;;
4198;SDS011;2113;50.946;14.610;2024-02-14T19:18:12;15.68;;;6.70;;
4198;SDS011;2113;50.946;14.610;2024-02-14T19:24:37;16.23;;;7.15;;
4198;SDS011;2113;50.946;14.610;2024-02-14T19:27:54;11.60;;;6.63;;
4198;SDS011;2113;50.946;14.610;2024-02-14T19:30:24;10.52;;;5.95;;
4198;SDS011;2113;50.946;14.610;2024-02-14T19:32:53;13.60;;;7.35;;
4198;SDS011;2113;50.946;14.610;2024-02-14T19:35:23;9.38;;;6.38;;
4198;SDS011;2113;50.946;14.610;2024-02-14T19:37:52;11.27;;;6.10;;
4198;SDS011;2113;50.946;14.610;2024-02-14T19:40:20;15.05;;;6.97;;
4198;SDS011;2113;50.946;14.610;2024-02-14T19:42:48;9.95;;;6.03;;
4198;SDS011;2113;50.946;14.610;2024-02-14T19:45:18;7.72;;;5.20;;
4198;SDS011;2113;50.946;14.610;2024-02-14T19:47:48;10.45;;;6.07;;
4198;SDS011;2113;50.946;14.610;2024-02-14T19:50:18;10.13;;;6.97;;
4198;SDS011;2113;50.946;14.610;2024-02-14T19:52:46;11.27;;;6.63;;
4198;SDS011;2113;50.946;14.610;2024-02-14T19:55:15;11.05;;;6.47;;
4198;SDS011;2113;50.946;14.610;2024-02-14T19:57:44;13.05;;;7.93;;
4198;SDS011;2113;50.946;14.610;2024-02-14T20:00:13;12.32;;;7.28;;
4198;SDS011;2113;50.946;14.610;2024-02-14T20:02:44;10.50;;;5.65;;
4198;SDS011;2113;50.946;14.610;2024-02-14T20:05:14;9.85;;;5.70;;
4198;SDS011;2113;50.946;14.610;2024-02-14T20:07:46;10.63;;;6.60;;
4198;SDS011;2113;50.946;14.610;2024-02-14T20:10:15;13.98;;;8.43;;
4198;SDS011;2113;50.946;14.610;2024-02-14T20:12:44;10.98;;;6.25;;
4198;SDS011;2113;50.946;14.610;2024-02-14T20:15:12;10.95;;;6.05;;
4198;SDS011;2113;50.946;14.610;2024-02-14T20:17:41;6.70;;;5.00;;
4198;SDS011;2113;50.946;14.610;2024-02-14T20:20:11;12.25;;;5.93;;
4198;SDS011;2113;50.946;14.610;2024-02-14T20:22:43;11.25;;;6.15;;
4198;SDS011;2113;50.946;14.610;2024-02-14T20:25:14;11.02;;;6.03;;
4198;SDS011;2113;50.946;14.610;2024-02-14T20:27:45;11.50;;;5.95;;
4198;SDS011;2113;50.946;14.610;2024-02-14T20:30:17;11.25;;;5.72;;
4198;SDS011;2113;50.946;14.610;2024-02-14T20:32:46;14.45;;;6.57;;
4198;SDS011;2113;50.946;14.610;2024-02-14T20:35:15;10.95;;;6.25;;
4198;SDS011;2113;50.946;14.610;2024-02-14T20:37:45;10.45;;;6.53;;